地図

経路データ

SID SEASON NUMBER BASIN SUBBASIN NAME ISO_TIME NATURE LAT LON WMO_WIND WMO_PRES WMO_AGENCY TRACK_TYPE DIST2LAND LANDFALL IFLAG USA_AGENCY USA_ATCF_ID USA_LAT USA_LON USA_RECORD USA_STATUS USA_WIND USA_PRES USA_SSHS USA_R34_NE USA_R34_SE USA_R34_SW USA_R34_NW USA_R50_NE USA_R50_SE USA_R50_SW USA_R50_NW USA_R64_NE USA_R64_SE USA_R64_SW USA_R64_NW USA_POCI USA_ROCI USA_RMW USA_EYE TOKYO_LAT TOKYO_LON TOKYO_GRADE TOKYO_WIND TOKYO_PRES TOKYO_R50_DIR TOKYO_R50_LONG TOKYO_R50_SHORT TOKYO_R30_DIR TOKYO_R30_LONG TOKYO_R30_SHORT TOKYO_LAND CMA_LAT CMA_LON CMA_CAT CMA_WIND CMA_PRES HKO_LAT HKO_LON HKO_CAT HKO_WIND HKO_PRES NEWDELHI_LAT NEWDELHI_LON NEWDELHI_GRADE NEWDELHI_WIND NEWDELHI_PRES NEWDELHI_CI NEWDELHI_DP NEWDELHI_POCI REUNION_LAT REUNION_LON REUNION_TYPE REUNION_WIND REUNION_PRES REUNION_TNUM REUNION_CI REUNION_RMW REUNION_R34_NE REUNION_R34_SE REUNION_R34_SW REUNION_R34_NW REUNION_R50_NE REUNION_R50_SE REUNION_R50_SW REUNION_R50_NW REUNION_R64_NE REUNION_R64_SE REUNION_R64_SW REUNION_R64_NW BOM_LAT BOM_LON BOM_TYPE BOM_WIND BOM_PRES BOM_TNUM BOM_CI BOM_RMW BOM_R34_NE BOM_R34_SE BOM_R34_SW BOM_R34_NW BOM_R50_NE BOM_R50_SE BOM_R50_SW BOM_R50_NW BOM_R64_NE BOM_R64_SE BOM_R64_SW BOM_R64_NW BOM_ROCI BOM_POCI BOM_EYE BOM_POS_METHOD BOM_PRES_METHOD NADI_LAT NADI_LON NADI_CAT NADI_WIND NADI_PRES WELLINGTON_LAT WELLINGTON_LON WELLINGTON_WIND WELLINGTON_PRES DS824_LAT DS824_LON DS824_STAGE DS824_WIND DS824_PRES TD9636_LAT TD9636_LON TD9636_STAGE TD9636_WIND TD9636_PRES TD9635_LAT TD9635_LON TD9635_WIND TD9635_PRES TD9635_ROCI NEUMANN_LAT NEUMANN_LON NEUMANN_CLASS NEUMANN_WIND NEUMANN_PRES MLC_LAT MLC_LON MLC_CLASS MLC_WIND MLC_PRES USA_GUST BOM_GUST BOM_GUST_PER REUNION_GUST REUNION_GUST_PER USA_SEAHGT USA_SEARAD_NE USA_SEARAD_SE USA_SEARAD_SW USA_SEARAD_NW STORM_SPEED STORM_DIR
1920105S17120 1920 14 SI WA NOT_NAMED 1920-04-14 01:00:00 NR -17.0000 119.700 bom main 263 258 ______O_______ -1 -17.0000 119.700 5 0
1920105S17120 1920 14 SI WA NOT_NAMED 1920-04-14 03:00:00 NR -17.1739 119.700 main 258 250 ______P_______ -1 -17.1739 119.700 5 0
1920105S17120 1920 14 SI WA NOT_NAMED 1920-04-14 06:00:00 NR -17.4340 119.700 main 250 234 ______P_______ -1 -17.4340 119.700 5 182
1920105S17120 1920 14 SI WA NOT_NAMED 1920-04-14 09:00:00 NR -17.6925 119.700 main 234 225 ______P_______ -1 -17.6925 119.700 5 181
1920105S17120 1920 14 SI WA NOT_NAMED 1920-04-14 12:00:00 NR -17.9482 119.700 main 225 197 ______P_______ -1 -17.9482 119.700 5 183
1920105S17120 1920 14 SI WA NOT_NAMED 1920-04-14 15:00:00 NR -18.2002 119.700 main 197 175 ______P_______ -1 -18.2002 119.700 5 0
1920105S17120 1920 14 SI WA NOT_NAMED 1920-04-14 18:00:00 NR -18.4474 119.700 main 175 144 ______P_______ -1 -18.4474 119.700 5 177
1920105S17120 1920 14 SI WA NOT_NAMED 1920-04-14 21:00:00 NR -18.6888 119.700 main 144 123 ______P_______ -1 -18.6888 119.700 5 178
1920105S17120 1920 14 SI WA NOT_NAMED 1920-04-15 00:00:00 NR -18.9235 119.700 main 123 112 ______P_______ -1 -18.9235 119.700 5 177
1920105S17120 1920 14 SI WA NOT_NAMED 1920-04-15 01:00:00 NR -19.0000 119.700 bom main 112 90 ______O_______ -1 -19.0000 119.700 5 0
1920105S17120 1920 14 SI WA NOT_NAMED 1920-04-15 03:00:00 NR -19.1510 119.701 main 90 67 ______P_______ -1 -19.1510 119.701 5 0
1920105S17120 1920 14 SI WA NOT_NAMED 1920-04-15 06:00:00 NR -19.3801 119.708 main 67 45 ______P_______ -1 -19.3801 119.708 5 0
1920105S17120 1920 14 SI WA NOT_NAMED 1920-04-15 09:00:00 NR -19.6247 119.730 main 45 11 ______P_______ -1 -19.6247 119.730 5 173
1920105S17120 1920 14 SI WA NOT_NAMED 1920-04-15 12:00:00 NR -19.8993 119.777 main 11 0 ______P_______ -1 -19.8993 119.777 6 170
1920105S17120 1920 14 SI WA NOT_NAMED 1920-04-15 13:00:00 NR -20.0000 119.800 bom main 0 0 ______O_______ -1 -20.0000 119.800 7 167
1920105S17120 1920 14 SI WA NOT_NAMED 1920-04-15 15:00:00 NR -20.2168 119.858 main 0 0 ______P_______ -1 -20.2168 119.858 7 165
1920105S17120 1920 14 SI WA NOT_NAMED 1920-04-15 18:00:00 NR -20.5749 119.969 main 0 0 ______P_______ -1 -20.5749 119.969 8 163
1920105S17120 1920 14 SI WA NOT_NAMED 1920-04-15 21:00:00 NR -20.9615 120.103 main 0 0 ______P_______ -1 -20.9615 120.103 8 162
1920105S17120 1920 14 SI WA NOT_NAMED 1920-04-16 00:00:00 NR -21.3643 120.250 main 0 0 ______P_______ -1 -21.3643 120.250 9 161
1920105S17120 1920 14 SI WA NOT_NAMED 1920-04-16 01:00:00 NR -21.5000 120.300 bom main 0 ______O_______ -1 -21.5000 120.300 9 162

IBTrACS Databaseについて

本データベースは、米国NOAAが公開する1842年以降の世界の熱帯低気圧のベストトラックデータアーカイブInternational Best Track Archive for Climate Stewardship (IBTrACS)を、ウェブで閲覧しやすい形式に変換したものです。

最終更新日:2021-10-25